sensor_id;sensor_type;location;lat;lon;timestamp;temperature;humidity
16929;DHT22;8581;47.334;11.190;2022-09-09T00:01:35;12.90;99.90
16929;DHT22;8581;47.334;11.190;2022-09-09T00:04:23;12.90;99.90
16929;DHT22;8581;47.334;11.190;2022-09-09T00:06:59;12.90;99.90
16929;DHT22;8581;47.334;11.190;2022-09-09T00:09:29;12.90;99.90
16929;DHT22;8581;47.334;11.190;2022-09-09T00:12:02;13.10;99.90
16929;DHT22;8581;47.334;11.190;2022-09-09T00:14:43;13.20;99.90
16929;DHT22;8581;47.334;11.190;2022-09-09T00:17:20;13.20;99.90
16929;DHT22;8581;47.334;11.190;2022-09-09T00:19:51;13.20;99.90
16929;DHT22;8581;47.334;11.190;2022-09-09T00:22:23;13.20;99.90
16929;DHT22;8581;47.334;11.190;2022-09-09T00:24:53;13.20;99.90
16929;DHT22;8581;47.334;11.190;2022-09-09T00:27:31;13.20;99.90
16929;DHT22;8581;47.334;11.190;2022-09-09T00:30:19;13.30;99.90
16929;DHT22;8581;47.334;11.190;2022-09-09T00:32:50;13.30;99.90
16929;DHT22;8581;47.334;11.190;2022-09-09T00:35:23;13.10;99.90
16929;DHT22;8581;47.334;11.190;2022-09-09T00:37:54;13.20;99.90
16929;DHT22;8581;47.334;11.190;2022-09-09T00:40:27;13.10;99.90
16929;DHT22;8581;47.334;11.190;2022-09-09T00:43:04;13.10;99.90
16929;DHT22;8581;47.334;11.190;2022-09-09T00:45:51;13.10;99.90
16929;DHT22;8581;47.334;11.190;2022-09-09T00:48:19;13.10;99.90
16929;DHT22;8581;47.334;11.190;2022-09-09T00:50:53;13.00;99.90
16929;DHT22;8581;47.334;11.190;2022-09-09T00:53:38;12.80;99.90
16929;DHT22;8581;47.334;11.190;2022-09-09T00:56:16;12.70;99.90
16929;DHT22;8581;47.334;11.190;2022-09-09T00:58:58;12.70;99.90
16929;DHT22;8581;47.334;11.190;2022-09-09T01:01:25;12.50;99.90
16929;DHT22;8581;47.334;11.190;2022-09-09T01:03:57;12.50;99.90
16929;DHT22;8581;47.334;11.190;2022-09-09T01:06:31;12.60;99.90
16929;DHT22;8581;47.334;11.190;2022-09-09T01:09:26;12.80;99.90
16929;DHT22;8581;47.334;11.190;2022-09-09T01:12:01;12.80;99.90
16929;DHT22;8581;47.334;11.190;2022-09-09T01:14:50;12.60;99.90
16929;DHT22;8581;47.334;11.190;2022-09-09T01:17:44;12.60;99.90
16929;DHT22;8581;47.334;11.190;2022-09-09T01:20:17;12.60;99.90
16929;DHT22;8581;47.334;11.190;2022-09-09T01:25:29;12.50;99.90
16929;DHT22;8581;47.334;11.190;2022-09-09T01:28:00;12.60;99.90
16929;DHT22;8581;47.334;11.190;2022-09-09T01:30:31;12.60;99.90
16929;DHT22;8581;47.334;11.190;2022-09-09T01:33:03;12.80;99.90
16929;DHT22;8581;47.334;11.190;2022-09-09T01:35:41;12.80;99.90
16929;DHT22;8581;47.334;11.190;2022-09-09T01:38:11;12.80;99.90
16929;DHT22;8581;47.334;11.190;2022-09-09T01:40:42;12.60;99.90
16929;DHT22;8581;47.334;11.190;2022-09-09T01:43:14;12.60;99.90
16929;DHT22;8581;47.334;11.190;2022-09-09T01:45:45;12.60;99.90
16929;DHT22;8581;47.334;11.190;2022-09-09T01:48:17;12.40;99.90
16929;DHT22;8581;47.334;11.190;2022-09-09T01:50:49;12.40;99.90
16929;DHT22;8581;47.334;11.190;2022-09-09T01:53:21;12.50;99.90
16929;DHT22;8581;47.334;11.190;2022-09-09T01:55:56;12.50;99.90
16929;DHT22;8581;47.334;11.190;2022-09-09T01:58:36;12.30;99.90
16929;DHT22;8581;47.334;11.190;2022-09-09T02:01:21;12.30;99.90
16929;DHT22;8581;47.334;11.190;2022-09-09T02:03:51;12.20;99.90
16929;DHT22;8581;47.334;11.190;2022-09-09T02:06:29;12.10;99.90
16929;DHT22;8581;47.334;11.190;2022-09-09T02:08:59;12.30;99.90
16929;DHT22;8581;47.334;11.190;2022-09-09T02:11:30;12.30;99.90
16929;DHT22;8581;47.334;11.190;2022-09-09T02:14:05;12.20;99.90
16929;DHT22;8581;47.334;11.190;2022-09-09T02:16:39;12.10;99.90
16929;DHT22;8581;47.334;11.190;2022-09-09T02:19:13;12.10;99.90
16929;DHT22;8581;47.334;11.190;2022-09-09T02:21:44;12.10;99.90
16929;DHT22;8581;47.334;11.190;2022-09-09T02:24:15;12.10;99.90
16929;DHT22;8581;47.334;11.190;2022-09-09T02:26:47;12.10;99.90
16929;DHT22;8581;47.334;11.190;2022-09-09T02:29:33;12.00;99.90
16929;DHT22;8581;47.334;11.190;2022-09-09T02:32:04;12.00;99.90
16929;DHT22;8581;47.334;11.190;2022-09-09T02:34:36;12.00;99.90
16929;DHT22;8581;47.334;11.190;2022-09-09T02:37:07;11.90;99.90
16929;DHT22;8581;47.334;11.190;2022-09-09T02:39:38;11.90;99.90
16929;DHT22;8581;47.334;11.190;2022-09-09T02:42:10;11.90;99.90
16929;DHT22;8581;47.334;11.190;2022-09-09T02:44:41;12.10;99.90
16929;DHT22;8581;47.334;11.190;2022-09-09T02:50:02;12.50;99.90
16929;DHT22;8581;47.334;11.190;2022-09-09T02:52:37;12.30;99.90
16929;DHT22;8581;47.334;11.190;2022-09-09T02:55:09;12.20;99.90
16929;DHT22;8581;47.334;11.190;2022-09-09T02:57:39;12.20;99.90
16929;DHT22;8581;47.334;11.190;2022-09-09T03:00:11;12.20;99.90
16929;DHT22;8581;47.334;11.190;2022-09-09T03:02:43;12.20;99.90
16929;DHT22;8581;47.334;11.190;2022-09-09T03:05:15;12.30;99.90
16929;DHT22;8581;47.334;11.190;2022-09-09T03:07:46;12.40;99.90
16929;DHT22;8581;47.334;11.190;2022-09-09T03:10:18;12.40;99.90
16929;DHT22;8581;47.334;11.190;2022-09-09T03:12:49;12.50;99.90
16929;DHT22;8581;47.334;11.190;2022-09-09T03:15:21;12.40;99.90
16929;DHT22;8581;47.334;11.190;2022-09-09T03:17:53;12.10;99.90
16929;DHT22;8581;47.334;11.190;2022-09-09T03:20:25;12.00;99.90
16929;DHT22;8581;47.334;11.190;2022-09-09T03:22:56;12.00;99.90
16929;DHT22;8581;47.334;11.190;2022-09-09T03:25:28;12.10;99.90
16929;DHT22;8581;47.334;11.190;2022-09-09T03:27:59;12.20;99.90
16929;DHT22;8581;47.334;11.190;2022-09-09T03:30:31;12.10;99.90
16929;DHT22;8581;47.334;11.190;2022-09-09T03:33:02;12.20;99.90
16929;DHT22;8581;47.334;11.190;2022-09-09T03:35:34;12.20;99.90
16929;DHT22;8581;47.334;11.190;2022-09-09T03:38:06;12.30;99.90
16929;DHT22;8581;47.334;11.190;2022-09-09T03:40:37;12.30;99.90
16929;DHT22;8581;47.334;11.190;2022-09-09T03:43:09;12.40;99.90
16929;DHT22;8581;47.334;11.190;2022-09-09T03:45:41;12.50;99.90
16929;DHT22;8581;47.334;11.190;2022-09-09T03:48:12;12.50;99.90
16929;DHT22;8581;47.334;11.190;2022-09-09T03:50:46;12.50;99.90
16929;DHT22;8581;47.334;11.190;2022-09-09T03:53:17;12.40;99.90
16929;DHT22;8581;47.334;11.190;2022-09-09T03:55:50;12.10;99.90
16929;DHT22;8581;47.334;11.190;2022-09-09T03:58:21;12.00;99.90
16929;DHT22;8581;47.334;11.190;2022-09-09T04:00:53;12.10;99.90
16929;DHT22;8581;47.334;11.190;2022-09-09T04:03:24;12.30;99.90
16929;DHT22;8581;47.334;11.190;2022-09-09T04:05:56;12.40;99.90
16929;DHT22;8581;47.334;11.190;2022-09-09T04:08:27;12.30;99.90
16929;DHT22;8581;47.334;11.190;2022-09-09T04:10:59;12.70;99.90
16929;DHT22;8581;47.334;11.190;2022-09-09T04:13:31;12.30;99.90
16929;DHT22;8581;47.334;11.190;2022-09-09T04:16:02;12.30;99.90
16929;DHT22;8581;47.334;11.190;2022-09-09T04:18:34;12.20;99.90
16929;DHT22;8581;47.334;11.190;2022-09-09T04:21:05;12.20;99.90
16929;DHT22;8581;47.334;11.190;2022-09-09T04:23:37;12.20;99.90
16929;DHT22;8581;47.334;11.190;2022-09-09T04:26:09;12.10;99.90
16929;DHT22;8581;47.334;11.190;2022-09-09T04:28:40;12.00;99.90
16929;DHT22;8581;47.334;11.190;2022-09-09T04:31:16;12.10;99.90
16929;DHT22;8581;47.334;11.190;2022-09-09T04:33:47;12.20;99.90
16929;DHT22;8581;47.334;11.190;2022-09-09T04:36:18;12.30;99.90
16929;DHT22;8581;47.334;11.190;2022-09-09T04:38:50;12.20;99.90
16929;DHT22;8581;47.334;11.190;2022-09-09T04:41:22;12.20;99.90
16929;DHT22;8581;47.334;11.190;2022-09-09T04:43:53;12.10;99.90
16929;DHT22;8581;47.334;11.190;2022-09-09T04:46:25;12.30;99.90
16929;DHT22;8581;47.334;11.190;2022-09-09T04:48:56;12.20;99.90
16929;DHT22;8581;47.334;11.190;2022-09-09T04:51:28;12.20;99.90
16929;DHT22;8581;47.334;11.190;2022-09-09T04:54:00;12.30;99.90
16929;DHT22;8581;47.334;11.190;2022-09-09T04:56:31;12.20;99.90
16929;DHT22;8581;47.334;11.190;2022-09-09T04:59:03;12.20;99.90
16929;DHT22;8581;47.334;11.190;2022-09-09T05:01:34;12.20;99.90
16929;DHT22;8581;47.334;11.190;2022-09-09T05:04:06;11.90;99.90
16929;DHT22;8581;47.334;11.190;2022-09-09T05:06:38;11.80;99.90
16929;DHT22;8581;47.334;11.190;2022-09-09T05:09:09;11.70;99.90
16929;DHT22;8581;47.334;11.190;2022-09-09T05:11:41;11.50;99.90
16929;DHT22;8581;47.334;11.190;2022-09-09T05:14:12;11.40;99.90
16929;DHT22;8581;47.334;11.190;2022-09-09T05:16:45;11.40;99.90
16929;DHT22;8581;47.334;11.190;2022-09-09T05:19:16;11.40;99.90
16929;DHT22;8581;47.334;11.190;2022-09-09T05:21:48;11.40;99.90
16929;DHT22;8581;47.334;11.190;2022-09-09T05:24:19;11.50;99.90
16929;DHT22;8581;47.334;11.190;2022-09-09T05:26:51;11.80;99.90
16929;DHT22;8581;47.334;11.190;2022-09-09T05:29:23;11.90;99.90
16929;DHT22;8581;47.334;11.190;2022-09-09T05:31:54;11.90;99.90
16929;DHT22;8581;47.334;11.190;2022-09-09T05:34:26;11.60;99.90
16929;DHT22;8581;47.334;11.190;2022-09-09T05:36:57;11.70;99.90
16929;DHT22;8581;47.334;11.190;2022-09-09T05:39:29;11.60;99.90
16929;DHT22;8581;47.334;11.190;2022-09-09T05:42:01;11.60;99.90
16929;DHT22;8581;47.334;11.190;2022-09-09T05:44:32;11.50;99.90
16929;DHT22;8581;47.334;11.190;2022-09-09T05:47:04;11.40;99.90
16929;DHT22;8581;47.334;11.190;2022-09-09T05:49:36;11.60;99.90
16929;DHT22;8581;47.334;11.190;2022-09-09T05:52:07;11.90;99.90
16929;DHT22;8581;47.334;11.190;2022-09-09T05:54:39;11.90;99.90
16929;DHT22;8581;47.334;11.190;2022-09-09T05:57:10;12.10;99.90
16929;DHT22;8581;47.334;11.190;2022-09-09T05:59:42;12.40;99.90
16929;DHT22;8581;47.334;11.190;2022-09-09T06:02:14;12.50;99.90
16929;DHT22;8581;47.334;11.190;2022-09-09T06:04:45;12.50;99.90
16929;DHT22;8581;47.334;11.190;2022-09-09T06:07:17;12.80;99.90
16929;DHT22;8581;47.334;11.190;2022-09-09T06:09:48;12.80;99.90
16929;DHT22;8581;47.334;11.190;2022-09-09T06:12:20;12.90;99.90
16929;DHT22;8581;47.334;11.190;2022-09-09T06:14:51;12.60;99.90
16929;DHT22;8581;47.334;11.190;2022-09-09T06:17:23;12.80;99.90
16929;DHT22;8581;47.334;11.190;2022-09-09T06:19:55;12.80;99.90
16929;DHT22;8581;47.334;11.190;2022-09-09T06:22:26;12.70;99.90
16929;DHT22;8581;47.334;11.190;2022-09-09T06:24:58;12.70;99.90
16929;DHT22;8581;47.334;11.190;2022-09-09T06:27:29;13.00;99.90
16929;DHT22;8581;47.334;11.190;2022-09-09T06:30:01;13.10;99.90
16929;DHT22;8581;47.334;11.190;2022-09-09T06:32:33;13.10;99.90
16929;DHT22;8581;47.334;11.190;2022-09-09T06:35:05;13.30;99.90
16929;DHT22;8581;47.334;11.190;2022-09-09T06:37:37;13.40;99.90
16929;DHT22;8581;47.334;11.190;2022-09-09T06:40:09;13.40;99.90
16929;DHT22;8581;47.334;11.190;2022-09-09T06:42:41;13.20;99.90
16929;DHT22;8581;47.334;11.190;2022-09-09T06:45:12;13.40;99.90
16929;DHT22;8581;47.334;11.190;2022-09-09T06:47:44;13.00;99.90
16929;DHT22;8581;47.334;11.190;2022-09-09T06:50:16;12.90;99.90
16929;DHT22;8581;47.334;11.190;2022-09-09T06:52:47;12.90;99.90
16929;DHT22;8581;47.334;11.190;2022-09-09T06:55:19;13.00;99.90
16929;DHT22;8581;47.334;11.190;2022-09-09T06:57:50;13.10;99.90
16929;DHT22;8581;47.334;11.190;2022-09-09T07:00:22;13.10;99.90
16929;DHT22;8581;47.334;11.190;2022-09-09T07:02:54;12.90;99.90
16929;DHT22;8581;47.334;11.190;2022-09-09T07:05:25;13.00;99.90
16929;DHT22;8581;47.334;11.190;2022-09-09T07:07:57;13.10;99.90
16929;DHT22;8581;47.334;11.190;2022-09-09T07:10:28;13.10;99.90
16929;DHT22;8581;47.334;11.190;2022-09-09T07:13:00;13.10;99.90
16929;DHT22;8581;47.334;11.190;2022-09-09T07:15:32;13.20;99.90
16929;DHT22;8581;47.334;11.190;2022-09-09T07:18:03;13.20;99.90
16929;DHT22;8581;47.334;11.190;2022-09-09T07:20:35;13.00;99.90
16929;DHT22;8581;47.334;11.190;2022-09-09T07:23:06;13.00;99.90
16929;DHT22;8581;47.334;11.190;2022-09-09T07:25:43;13.10;99.90
16929;DHT22;8581;47.334;11.190;2022-09-09T07:28:10;13.20;99.90
16929;DHT22;8581;47.334;11.190;2022-09-09T07:30:41;13.20;99.90
16929;DHT22;8581;47.334;11.190;2022-09-09T07:33:13;13.30;99.90
16929;DHT22;8581;47.334;11.190;2022-09-09T07:35:44;13.20;99.90
16929;DHT22;8581;47.334;11.190;2022-09-09T07:38:16;13.10;99.90
16929;DHT22;8581;47.334;11.190;2022-09-09T07:40:48;13.10;99.90
16929;DHT22;8581;47.334;11.190;2022-09-09T07:43:19;13.10;99.90
16929;DHT22;8581;47.334;11.190;2022-09-09T07:45:57;13.10;99.90
16929;DHT22;8581;47.334;11.190;2022-09-09T07:48:24;13.00;99.90
16929;DHT22;8581;47.334;11.190;2022-09-09T07:51:04;13.00;99.90
16929;DHT22;8581;47.334;11.190;2022-09-09T07:53:34;12.80;99.90
16929;DHT22;8581;47.334;11.190;2022-09-09T07:56:07;12.70;99.90
16929;DHT22;8581;47.334;11.190;2022-09-09T07:58:38;12.40;99.90
16929;DHT22;8581;47.334;11.190;2022-09-09T08:01:11;12.50;99.90
16929;DHT22;8581;47.334;11.190;2022-09-09T08:03:42;12.40;99.90
16929;DHT22;8581;47.334;11.190;2022-09-09T08:06:13;12.50;99.90
16929;DHT22;8581;47.334;11.190;2022-09-09T08:08:45;12.50;99.90
16929;DHT22;8581;47.334;11.190;2022-09-09T08:11:16;12.70;99.90
16929;DHT22;8581;47.334;11.190;2022-09-09T08:13:48;12.70;99.90
16929;DHT22;8581;47.334;11.190;2022-09-09T08:16:21;12.80;99.90
16929;DHT22;8581;47.334;11.190;2022-09-09T08:18:53;13.10;99.90
16929;DHT22;8581;47.334;11.190;2022-09-09T08:21:26;13.20;99.90
16929;DHT22;8581;47.334;11.190;2022-09-09T08:23:57;13.50;99.90
16929;DHT22;8581;47.334;11.190;2022-09-09T08:26:29;13.50;99.90
16929;DHT22;8581;47.334;11.190;2022-09-09T08:29:00;13.70;99.90
16929;DHT22;8581;47.334;11.190;2022-09-09T08:31:35;13.80;99.90
16929;DHT22;8581;47.334;11.190;2022-09-09T08:34:06;13.60;99.90
16929;DHT22;8581;47.334;11.190;2022-09-09T08:36:39;13.40;99.90
16929;DHT22;8581;47.334;11.190;2022-09-09T08:39:10;13.40;99.90
16929;DHT22;8581;47.334;11.190;2022-09-09T08:42:24;13.40;99.90
16929;DHT22;8581;47.334;11.190;2022-09-09T08:44:44;13.40;99.90
16929;DHT22;8581;47.334;11.190;2022-09-09T08:47:28;13.20;99.90
16929;DHT22;8581;47.334;11.190;2022-09-09T08:52:49;13.90;99.90
16929;DHT22;8581;47.334;11.190;2022-09-09T08:55:26;14.30;99.90
16929;DHT22;8581;47.334;11.190;2022-09-09T08:57:57;14.50;99.90
16929;DHT22;8581;47.334;11.190;2022-09-09T09:00:30;14.90;99.90
16929;DHT22;8581;47.334;11.190;2022-09-09T09:03:09;14.90;99.90
16929;DHT22;8581;47.334;11.190;2022-09-09T09:06:20;15.00;99.90
16929;DHT22;8581;47.334;11.190;2022-09-09T09:08:36;15.10;99.90
16929;DHT22;8581;47.334;11.190;2022-09-09T09:11:04;15.20;99.90
16929;DHT22;8581;47.334;11.190;2022-09-09T09:13:56;15.30;99.90
16929;DHT22;8581;47.334;11.190;2022-09-09T09:16:48;15.50;99.90
16929;DHT22;8581;47.334;11.190;2022-09-09T09:19:14;15.70;99.90
16929;DHT22;8581;47.334;11.190;2022-09-09T09:21:51;15.60;99.90
16929;DHT22;8581;47.334;11.190;2022-09-09T09:24:30;16.00;99.90
16929;DHT22;8581;47.334;11.190;2022-09-09T09:27:00;15.80;99.90
16929;DHT22;8581;47.334;11.190;2022-09-09T09:29:30;16.10;99.90
16929;DHT22;8581;47.334;11.190;2022-09-09T09:32:02;16.10;99.90
16929;DHT22;8581;47.334;11.190;2022-09-09T09:34:33;15.60;99.90
16929;DHT22;8581;47.334;11.190;2022-09-09T09:37:12;16.10;99.90
16929;DHT22;8581;47.334;11.190;2022-09-09T09:39:37;16.40;99.90
16929;DHT22;8581;47.334;11.190;2022-09-09T09:42:12;16.70;99.90
16929;DHT22;8581;47.334;11.190;2022-09-09T09:44:44;16.70;99.90
16929;DHT22;8581;47.334;11.190;2022-09-09T09:47:18;17.10;99.90
16929;DHT22;8581;47.334;11.190;2022-09-09T09:50:00;17.30;99.90
16929;DHT22;8581;47.334;11.190;2022-09-09T09:52:31;17.10;99.90
16929;DHT22;8581;47.334;11.190;2022-09-09T09:55:03;16.80;99.90
16929;DHT22;8581;47.334;11.190;2022-09-09T09:57:35;16.30;99.90
16929;DHT22;8581;47.334;11.190;2022-09-09T10:00:14;15.80;99.90
16929;DHT22;8581;47.334;11.190;2022-09-09T10:02:45;15.60;99.90
16929;DHT22;8581;47.334;11.190;2022-09-09T10:05:17;15.30;99.90
16929;DHT22;8581;47.334;11.190;2022-09-09T10:10:40;15.40;99.90
16929;DHT22;8581;47.334;11.190;2022-09-09T10:13:11;15.70;99.90
16929;DHT22;8581;47.334;11.190;2022-09-09T10:15:46;15.40;99.90
16929;DHT22;8581;47.334;11.190;2022-09-09T10:18:38;15.20;99.90
16929;DHT22;8581;47.334;11.190;2022-09-09T10:21:28;15.20;99.90
16929;DHT22;8581;47.334;11.190;2022-09-09T10:24:14;14.80;99.90
16929;DHT22;8581;47.334;11.190;2022-09-09T10:26:52;15.00;99.90
16929;DHT22;8581;47.334;11.190;2022-09-09T10:29:43;15.30;99.90
16929;DHT22;8581;47.334;11.190;2022-09-09T10:32:36;15.10;99.90
16929;DHT22;8581;47.334;11.190;2022-09-09T10:40:58;15.30;99.90
16929;DHT22;8581;47.334;11.190;2022-09-09T10:49:24;15.80;99.90
16929;DHT22;8581;47.334;11.190;2022-09-09T10:52:03;16.20;99.90
16929;DHT22;8581;47.334;11.190;2022-09-09T10:55:00;16.50;99.90
16929;DHT22;8581;47.334;11.190;2022-09-09T10:57:33;17.30;99.90
16929;DHT22;8581;47.334;11.190;2022-09-09T11:00:05;17.20;99.90
16929;DHT22;8581;47.334;11.190;2022-09-09T11:02:36;17.00;99.90
16929;DHT22;8581;47.334;11.190;2022-09-09T11:05:14;16.60;99.90
16929;DHT22;8581;47.334;11.190;2022-09-09T11:07:49;16.60;99.90
16929;DHT22;8581;47.334;11.190;2022-09-09T11:10:25;16.80;99.90
16929;DHT22;8581;47.334;11.190;2022-09-09T11:12:56;16.50;99.90
16929;DHT22;8581;47.334;11.190;2022-09-09T11:15:31;16.80;99.90
16929;DHT22;8581;47.334;11.190;2022-09-09T11:18:01;16.50;99.90
16929;DHT22;8581;47.334;11.190;2022-09-09T11:20:33;16.10;99.90
16929;DHT22;8581;47.334;11.190;2022-09-09T11:23:26;16.60;99.90
16929;DHT22;8581;47.334;11.190;2022-09-09T11:25:56;16.60;99.90
16929;DHT22;8581;47.334;11.190;2022-09-09T11:31:34;16.90;99.90
16929;DHT22;8581;47.334;11.190;2022-09-09T11:34:09;16.40;99.90
16929;DHT22;8581;47.334;11.190;2022-09-09T11:36:48;16.30;99.90
16929;DHT22;8581;47.334;11.190;2022-09-09T11:42:20;17.00;99.90
16929;DHT22;8581;47.334;11.190;2022-09-09T11:44:52;16.90;99.90
16929;DHT22;8581;47.334;11.190;2022-09-09T11:47:27;16.70;99.90
16929;DHT22;8581;47.334;11.190;2022-09-09T11:50:09;16.40;99.90
16929;DHT22;8581;47.334;11.190;2022-09-09T11:52:41;16.50;99.90
16929;DHT22;8581;47.334;11.190;2022-09-09T11:55:28;16.80;99.90
16929;DHT22;8581;47.334;11.190;2022-09-09T11:57:59;16.80;99.90
16929;DHT22;8581;47.334;11.190;2022-09-09T12:00:47;17.10;99.90
16929;DHT22;8581;47.334;11.190;2022-09-09T12:06:08;17.50;99.90
16929;DHT22;8581;47.334;11.190;2022-09-09T12:08:32;17.90;99.90
16929;DHT22;8581;47.334;11.190;2022-09-09T12:11:04;17.80;99.90
16929;DHT22;8581;47.334;11.190;2022-09-09T12:13:35;17.30;99.90
16929;DHT22;8581;47.334;11.190;2022-09-09T12:16:26;17.40;99.90
16929;DHT22;8581;47.334;11.190;2022-09-09T12:18:39;17.50;99.90
16929;DHT22;8581;47.334;11.190;2022-09-09T12:21:19;17.60;99.90
16929;DHT22;8581;47.334;11.190;2022-09-09T12:23:58;17.60;99.90
16929;DHT22;8581;47.334;11.190;2022-09-09T12:26:32;18.10;99.90
16929;DHT22;8581;47.334;11.190;2022-09-09T12:30:09;18.30;99.90
16929;DHT22;8581;47.334;11.190;2022-09-09T12:32:00;18.20;99.90
16929;DHT22;8581;47.334;11.190;2022-09-09T12:34:37;18.30;99.90
16929;DHT22;8581;47.334;11.190;2022-09-09T12:37:39;18.20;99.90
16929;DHT22;8581;47.334;11.190;2022-09-09T12:39:55;18.10;99.90
16929;DHT22;8581;47.334;11.190;2022-09-09T12:42:26;18.10;99.90
16929;DHT22;8581;47.334;11.190;2022-09-09T12:44:59;18.20;99.90
16929;DHT22;8581;47.334;11.190;2022-09-09T12:47:34;18.00;99.90
16929;DHT22;8581;47.334;11.190;2022-09-09T12:50:02;17.60;99.90
16929;DHT22;8581;47.334;11.190;2022-09-09T12:52:35;17.60;99.90
16929;DHT22;8581;47.334;11.190;2022-09-09T12:55:05;17.30;99.90
16929;DHT22;8581;47.334;11.190;2022-09-09T12:57:38;17.30;99.90
16929;DHT22;8581;47.334;11.190;2022-09-09T13:00:15;17.30;99.90
16929;DHT22;8581;47.334;11.190;2022-09-09T13:02:56;16.90;99.90
16929;DHT22;8581;47.334;11.190;2022-09-09T13:05:34;16.50;99.90
16929;DHT22;8581;47.334;11.190;2022-09-09T13:08:02;16.00;99.90
16929;DHT22;8581;47.334;11.190;2022-09-09T13:10:35;15.50;99.90
16929;DHT22;8581;47.334;11.190;2022-09-09T13:13:13;15.20;99.90
16929;DHT22;8581;47.334;11.190;2022-09-09T13:15:36;15.20;99.90
16929;DHT22;8581;47.334;11.190;2022-09-09T13:18:11;14.90;99.90
16929;DHT22;8581;47.334;11.190;2022-09-09T13:20:44;14.90;99.90
16929;DHT22;8581;47.334;11.190;2022-09-09T13:23:11;14.80;99.90
16929;DHT22;8581;47.334;11.190;2022-09-09T13:25:52;14.80;99.90
16929;DHT22;8581;47.334;11.190;2022-09-09T13:28:20;14.80;99.90
16929;DHT22;8581;47.334;11.190;2022-09-09T13:31:02;14.90;99.90
16929;DHT22;8581;47.334;11.190;2022-09-09T13:33:37;14.80;99.90
16929;DHT22;8581;47.334;11.190;2022-09-09T13:36:09;14.70;99.90
16929;DHT22;8581;47.334;11.190;2022-09-09T13:38:56;14.70;99.90
16929;DHT22;8581;47.334;11.190;2022-09-09T13:41:32;14.90;99.90
16929;DHT22;8581;47.334;11.190;2022-09-09T13:44:02;14.80;99.90
16929;DHT22;8581;47.334;11.190;2022-09-09T13:46:39;14.60;99.90
16929;DHT22;8581;47.334;11.190;2022-09-09T13:49:26;14.40;99.90
16929;DHT22;8581;47.334;11.190;2022-09-09T13:52:09;14.60;99.90
16929;DHT22;8581;47.334;11.190;2022-09-09T13:54:40;14.90;99.90
16929;DHT22;8581;47.334;11.190;2022-09-09T13:57:16;14.90;99.90
16929;DHT22;8581;47.334;11.190;2022-09-09T13:59:46;14.60;99.90
16929;DHT22;8581;47.334;11.190;2022-09-09T14:02:18;14.70;99.90
16929;DHT22;8581;47.334;11.190;2022-09-09T14:04:49;14.80;99.90
16929;DHT22;8581;47.334;11.190;2022-09-09T14:07:21;14.90;99.90
16929;DHT22;8581;47.334;11.190;2022-09-09T14:09:52;14.70;99.90
16929;DHT22;8581;47.334;11.190;2022-09-09T14:12:24;14.60;99.90
16929;DHT22;8581;47.334;11.190;2022-09-09T14:14:56;14.50;99.90
16929;DHT22;8581;47.334;11.190;2022-09-09T14:17:27;14.50;99.90
16929;DHT22;8581;47.334;11.190;2022-09-09T14:19:59;14.50;99.90
16929;DHT22;8581;47.334;11.190;2022-09-09T14:22:30;14.40;99.90
16929;DHT22;8581;47.334;11.190;2022-09-09T14:25:02;14.30;99.90
16929;DHT22;8581;47.334;11.190;2022-09-09T14:27:34;14.20;99.90
16929;DHT22;8581;47.334;11.190;2022-09-09T14:30:06;14.10;99.90
16929;DHT22;8581;47.334;11.190;2022-09-09T14:32:38;14.00;99.90
16929;DHT22;8581;47.334;11.190;2022-09-09T14:35:10;13.90;99.90
16929;DHT22;8581;47.334;11.190;2022-09-09T14:37:41;13.50;99.90
16929;DHT22;8581;47.334;11.190;2022-09-09T14:40:13;13.80;99.90
16929;DHT22;8581;47.334;11.190;2022-09-09T14:42:44;13.70;99.90
16929;DHT22;8581;47.334;11.190;2022-09-09T14:45:16;13.60;99.90
16929;DHT22;8581;47.334;11.190;2022-09-09T14:47:49;13.60;99.90
16929;DHT22;8581;47.334;11.190;2022-09-09T14:50:19;13.50;99.90
16929;DHT22;8581;47.334;11.190;2022-09-09T14:52:51;13.60;99.90
16929;DHT22;8581;47.334;11.190;2022-09-09T14:55:22;13.80;99.90
16929;DHT22;8581;47.334;11.190;2022-09-09T14:57:54;13.90;99.90
16929;DHT22;8581;47.334;11.190;2022-09-09T15:00:26;13.90;99.90
16929;DHT22;8581;47.334;11.190;2022-09-09T15:02:57;14.00;99.90
16929;DHT22;8581;47.334;11.190;2022-09-09T15:05:29;13.70;99.90
16929;DHT22;8581;47.334;11.190;2022-09-09T15:08:00;13.70;99.90
16929;DHT22;8581;47.334;11.190;2022-09-09T15:10:32;13.90;99.90
16929;DHT22;8581;47.334;11.190;2022-09-09T15:13:04;13.90;99.90
16929;DHT22;8581;47.334;11.190;2022-09-09T15:15:35;14.20;99.90
16929;DHT22;8581;47.334;11.190;2022-09-09T15:18:07;14.20;99.90
16929;DHT22;8581;47.334;11.190;2022-09-09T15:20:38;14.30;99.90
16929;DHT22;8581;47.334;11.190;2022-09-09T15:23:10;14.40;99.90
16929;DHT22;8581;47.334;11.190;2022-09-09T15:25:52;14.60;99.90
16929;DHT22;8581;47.334;11.190;2022-09-09T15:28:23;14.70;99.90
16929;DHT22;8581;47.334;11.190;2022-09-09T15:30:55;14.80;99.90
16929;DHT22;8581;47.334;11.190;2022-09-09T15:33:26;15.20;99.90
16929;DHT22;8581;47.334;11.190;2022-09-09T15:35:58;15.80;99.90
16929;DHT22;8581;47.334;11.190;2022-09-09T15:38:30;16.90;99.90
16929;DHT22;8581;47.334;11.190;2022-09-09T15:41:01;17.80;99.90
16929;DHT22;8581;47.334;11.190;2022-09-09T15:43:33;19.20;99.90
16929;DHT22;8581;47.334;11.190;2022-09-09T15:46:24;20.10;99.90
16929;DHT22;8581;47.334;11.190;2022-09-09T15:48:56;20.00;99.90
16929;DHT22;8581;47.334;11.190;2022-09-09T15:51:27;19.30;99.90
16929;DHT22;8581;47.334;11.190;2022-09-09T15:53:59;18.70;99.90
16929;DHT22;8581;47.334;11.190;2022-09-09T15:56:30;18.20;99.90
16929;DHT22;8581;47.334;11.190;2022-09-09T15:59:02;18.10;99.90
16929;DHT22;8581;47.334;11.190;2022-09-09T16:01:34;19.00;99.90
16929;DHT22;8581;47.334;11.190;2022-09-09T16:04:05;21.40;99.90
16929;DHT22;8581;47.334;11.190;2022-09-09T16:06:37;23.60;99.90
16929;DHT22;8581;47.334;11.190;2022-09-09T16:09:08;26.00;99.90
16929;DHT22;8581;47.334;11.190;2022-09-09T16:11:40;25.10;99.90
16929;DHT22;8581;47.334;11.190;2022-09-09T16:14:12;24.00;99.90
16929;DHT22;8581;47.334;11.190;2022-09-09T16:16:43;23.70;99.90
16929;DHT22;8581;47.334;11.190;2022-09-09T16:19:15;21.60;99.90
16929;DHT22;8581;47.334;11.190;2022-09-09T16:21:47;21.70;99.90
16929;DHT22;8581;47.334;11.190;2022-09-09T16:24:18;22.70;99.90
16929;DHT22;8581;47.334;11.190;2022-09-09T16:26:51;23.10;99.90
16929;DHT22;8581;47.334;11.190;2022-09-09T16:29:22;22.60;99.90
16929;DHT22;8581;47.334;11.190;2022-09-09T16:31:53;24.50;99.90
16929;DHT22;8581;47.334;11.190;2022-09-09T16:34:24;25.80;99.90
16929;DHT22;8581;47.334;11.190;2022-09-09T16:36:56;23.20;99.90
16929;DHT22;8581;47.334;11.190;2022-09-09T16:39:28;21.20;99.90
16929;DHT22;8581;47.334;11.190;2022-09-09T16:41:59;22.10;99.90